Plzen Line, Czech Republic

8:03 AM CEST on September 02, 2014 (GMT +0200)
IPLZEU012 | Change Station
CLOSE
Current Station
Personal Weather Station
Location: Velhartice, PLZENSKY KRAJ
Elevation: 2008 ft
Nearby Weather Stations

Elev 2008 ft 49.26 °N, 13.38 °E | Updated 3 minutes ago

Overcast
Overcast
51.4 °F
Feels Like 51.4 °F
N
1.1
Wind Variable Wind from West
Gusts 1.8 mph

Today
High -- | Low -- °F
--% Chance of Precip.
Yesterday
High -- | Low -- °F
Precip. -- in
6:24 AM 7:48 PM
Waxing Crescent, 48% visible
Pressure 30.09 in
Visibility 6.2 miles
Clouds Mostly Cloudy 3600 ft
Overcast 4600 ft
Dew Point 50 °F
Humidity 97%
Rainfall 0.01 in
Snow Depth Not available.
UV 0 out of 12
Pollen Not available.
Air Quality Not available.
Flu Activity Not available.
METAR LKLN 020400Z AUTO 29001KT 9999 BKN036 OVC046 13/13 Q1019

More Conditions Fewer Conditions

Pressure 30.09 in
Visibility 6.2 miles
Clouds Mostly Cloudy 3600 ft
Overcast 4600 ft
Dew Point 50 °F
Humidity 97%
Rainfall 0.01 in
Snow Depth Not available.
UV 0 out of 12
Pollen Not available.
Air Quality Not available.
Flu Activity Not available.
METAR LKLN 020400Z AUTO 29001KT 9999 BKN036 OVC046 13/13 Q1019

More Conditions Fewer Conditions

10-Day Weather Forecast

Almanac

Astronomy

Sep. 02, 2014 Rise Set
Actual Time 6:24 AM CEST 7:48 PM CEST
Civil Twilight 5:51 AM CEST 8:20 PM CEST
Nautical Twilight 5:11 AM CEST 9:00 PM CEST
Astronomical Twilight 4:27 AM CEST 9:43 PM CEST
Moon 2:29 PM CEST 11:48 PM CEST
Length of Visible Light 14h 29m
Length of Day
13h 23m
Tomorrow will be 3m 30s shorter.
Waxing Crescent, 48% of the Moon is Illuminated
Today
Waxing Crescent
Sep 2
First Quarter
Sep 8
Full
Sep 15
Last Quarter
Sep 24
New

Yesterday's Extremes

Country Highs Country Lows

Community

WunderPhotos

Upload Photos

1,749,581 photos uploaded!

WunderBlogs® & News

Nearby

Snow Depth

Not available.

Earthquake Activity

City Distance Mag. Time & Date
No recent earthquake activity has been reported nearby.
Minimum magnitude displayed is 2.5.

Coastal Water Temperatures

Place Temperature
No Stations Reporting

Nearby Weather Stations